Time;durP1;ratioP1;P1;durP2;ratioP2;P2;SDS_P1;SDS_P2;PMS_P1;PMS_P2;Temp;Humidity;BMP_temperature;BMP_pressure;BME280_temperature;BME280_humidity;BME280_pressure;Samples;Min_cycle;Max_cycle;Signal;HPM_P1;HPM_P2
2024/04/11 04:00:50;;;;;;;1.13;1.03;;;4.20;97.30;;;;;;6261444;21;21097;-89
2024/04/11 04:03:16;;;;;;;1.90;1.20;;;4.20;97.30;;;;;;5340526;26;20902;-89
2024/04/11 04:05:42;;;;;;;1.30;1.20;;;4.20;97.30;;;;;;5322434;26;20473;-91
2024/04/11 04:08:08;;;;;;;2.50;1.97;;;4.20;97.30;;;;;;5315789;26;20515;-88
2024/04/11 04:10:34;;;;;;;2.17;1.33;;;4.10;97.30;;;;;;5342803;26;20607;-89
2024/04/11 04:12:59;;;;;;;3.40;3.20;;;4.10;97.30;;;;;;5344505;26;20477;-90
2024/04/11 04:15:25;;;;;;;1.97;1.70;;;4.10;97.30;;;;;;5359094;26;20231;-89
2024/04/11 04:17:53;;;;;;;2.53;2.33;;;4.10;97.30;;;;;;5344906;26;20230;-91
2024/04/11 04:20:21;;;;;;;2.60;1.90;;;4.10;97.30;;;;;;5341649;26;20235;-90
2024/04/11 04:22:46;;;;;;;3.07;1.30;;;4.10;97.30;;;;;;5342605;26;20942;-91
2024/04/11 04:25:14;;;;;;;1.67;1.57;;;4.10;97.30;;;;;;5342253;26;20481;-89
2024/04/11 04:27:41;;;;;;;9.13;2.47;;;4.10;97.30;;;;;;5341114;26;20239;-89
2024/04/11 04:30:09;;;;;;;1.73;1.70;;;4.10;97.30;;;;;;5338158;26;20843;-89
2024/04/11 04:32:38;;;;;;;3.80;1.47;;;4.10;97.30;;;;;;5339405;26;20580;-88
2024/04/11 04:35:06;;;;;;;1.47;1.37;;;4.00;97.30;;;;;;5339155;26;20537;-90
2024/04/11 04:37:33;;;;;;;1.20;1.10;;;3.90;97.30;;;;;;5343280;26;20815;-88
2024/04/11 04:39:59;;;;;;;1.30;1.20;;;3.90;97.30;;;;;;5342110;26;20469;-89
2024/04/11 04:42:24;;;;;;;1.00;0.90;;;3.90;97.30;;;;;;5343321;26;20537;-90
2024/04/11 04:44:54;;;;;;;4.70;3.30;;;4.00;97.30;;;;;;5344714;26;20526;-88
2024/04/11 04:47:28;;;;;;;1.47;1.37;;;4.00;97.30;;;;;;5344934;26;20282;-90
2024/04/11 04:49:55;;;;;;;1.20;1.10;;;4.10;97.30;;;;;;5355879;26;20468;-89
2024/04/11 04:52:24;;;;;;;2.30;2.13;;;4.10;97.30;;;;;;5343602;26;21010;-90
2024/04/11 04:54:53;;;;;;;3.33;3.13;;;4.20;97.30;;;;;;5343114;26;20473;-89
2024/04/11 04:57:19;;;;;;;2.73;2.57;;;4.20;97.30;;;;;;5343043;26;20485;-90
2024/04/11 04:59:45;;;;;;;1.10;1.00;;;4.20;97.30;;;;;;5353549;26;20597;-89
2024/04/11 05:02:13;;;;;;;2.47;2.27;;;4.30;97.30;;;;;;5348336;26;20273;-89
2024/04/11 05:05:37;;;;;;;14.47;1.77;;;4.30;97.30;;;;;;5337750;26;20467;-89
2024/04/11 05:08:07;;;;;;;3.23;2.40;;;4.40;97.30;;;;;;5159331;27;20511;-88
2024/04/11 05:14:16;;;;;;;1.20;1.10;;;4.50;97.30;;;;;;5046538;27;20612;-91
2024/04/11 05:16:50;;;;;;;2.80;1.50;;;4.70;97.30;;;;;;5172030;27;20477;-88
2024/04/11 05:19:36;;;;;;;7.53;2.53;;;4.80;97.30;;;;;;5179200;27;20470;-92
2024/04/11 05:22:26;;;;;;;3.97;3.10;;;4.90;97.30;;;;;;5210659;27;20911;-88
2024/04/11 05:25:30;;;;;;;1.47;1.37;;;4.90;97.30;;;;;;5190993;27;20534;-90
2024/04/11 05:28:07;;;;;;;;;;;;;;;;;;;;;
2024/04/11 05:30:45;;;;;;;2.90;1.80;;;5.10;97.30;;;;;;5205400;27;20474;-89
2024/04/11 05:33:17;;;;;;;1.93;1.83;;;5.20;97.30;;;;;;5343029;26;20517;-90
2024/04/11 05:35:45;;;;;;;4.93;2.60;;;5.30;97.30;;;;;;5346205;26;20474;-89
2024/04/11 05:38:17;;;;;;;1.37;1.37;;;5.40;97.30;;;;;;5338891;26;20517;-89
2024/04/11 05:41:15;;;;;;;2.93;2.73;;;5.50;97.30;;;;;;5341401;26;20513;-88
2024/04/11 05:44:24;;;;;;;2.50;1.77;;;5.60;97.30;;;;;;5337621;26;20478;-90
2024/04/11 05:47:48;;;;;;;;;;;;;;;;;;;;;
2024/04/11 05:54:36;;;;;;;3.23;3.03;;;6.10;97.30;;;;;;5260093;27;20468;-88
2024/04/11 05:57:17;;;;;;;1.70;1.47;;;6.30;97.30;;;;;;5243820;27;21056;-90
2024/04/11 06:02:46;;;;;;;1.90;1.80;;;6.60;97.30;;;;;;5345212;21;20505;-65
2024/04/11 06:05:12;;;;;;;1.20;1.10;;;6.80;97.30;;;;;;5338930;26;20739;-64
2024/04/11 06:07:39;;;;;;;1.00;0.90;;;7.00;97.30;;;;;;5337427;26;20261;-64
2024/04/11 06:10:05;;;;;;;2.63;2.43;;;7.20;97.30;;;;;;5338921;26;20230;-65
2024/04/11 06:12:32;;;;;;;1.77;1.67;;;7.30;97.30;;;;;;5304857;26;20463;-64
2024/04/11 06:14:57;;;;;;;1.93;1.83;;;7.50;97.30;;;;;;5304532;26;20523;-65
2024/04/11 06:17:23;;;;;;;6.73;1.77;;;7.60;97.30;;;;;;5303235;26;20462;-65
2024/04/11 06:19:48;;;;;;;2.57;2.37;;;7.80;97.30;;;;;;5304723;26;20274;-65
2024/04/11 06:22:16;;;;;;;3.80;1.90;;;7.90;97.30;;;;;;5302488;26;20243;-65
2024/04/11 06:24:42;;;;;;;2.03;1.93;;;8.10;97.30;;;;;;5303054;26;20318;-65
2024/04/11 06:27:08;;;;;;;1.33;1.27;;;8.30;97.30;;;;;;5304125;27;20471;-65
2024/04/11 06:29:37;;;;;;;1.47;1.30;;;8.40;97.30;;;;;;5305053;27;20228;-65
2024/04/11 06:32:04;;;;;;;1.27;1.17;;;8.60;97.30;;;;;;5304998;26;20782;-63
2024/04/11 06:34:30;;;;;;;1.60;1.57;;;8.80;97.30;;;;;;5303199;27;21137;-63
2024/04/11 06:36:56;;;;;;;1.47;1.40;;;8.90;97.30;;;;;;5304938;26;20517;-63
2024/04/11 06:39:24;;;;;;;1.20;1.10;;;9.10;97.30;;;;;;5303850;26;20263;-63
2024/04/11 06:41:50;;;;;;;2.60;1.47;;;9.30;97.30;;;;;;5302790;26;20471;-63
2024/04/11 06:44:16;;;;;;;1.67;1.57;;;9.50;97.30;;;;;;5304287;26;20511;-64
2024/04/11 06:46:44;;;;;;;2.77;2.57;;;9.70;97.30;;;;;;5302980;27;20674;-63
2024/04/11 06:49:11;;;;;;;1.10;1.07;;;9.90;97.30;;;;;;5307883;26;20451;-64
2024/04/11 06:51:37;;;;;;;2.93;2.70;;;10.00;97.30;;;;;;5307755;26;20562;-63
2024/04/11 06:54:03;;;;;;;5.43;3.47;;;10.10;97.30;;;;;;5307946;26;20467;-63
2024/04/11 06:56:29;;;;;;;3.77;2.57;;;10.30;97.30;;;;;;5307381;26;20228;-63
2024/04/11 06:58:55;;;;;;;2.00;1.43;;;10.40;97.30;;;;;;5307260;26;20582;-63
2024/04/11 07:01:20;;;;;;;1.40;1.37;;;10.50;97.30;;;;;;5306699;26;20244;-63
2024/04/11 07:03:49;;;;;;;2.83;1.23;;;10.70;97.30;;;;;;5303213;27;20299;-66
2024/04/11 07:06:22;;;;;;;2.13;1.47;;;10.90;97.30;;;;;;5297381;27;20917;-66
2024/04/11 07:08:52;;;;;;;4.00;2.03;;;11.00;97.30;;;;;;5306040;26;20462;-65
2024/04/11 07:11:32;;;;;;;2.43;1.70;;;11.20;97.30;;;;;;5303709;26;21064;-64
2024/04/11 07:13:59;;;;;;;2.63;2.43;;;11.30;97.30;;;;;;5305466;27;20475;-65
2024/04/11 07:16:32;;;;;;;12.73;3.63;;;11.50;97.20;;;;;;5304747;27;20474;-65
2024/04/11 07:19:02;;;;;;;6.30;1.90;;;11.50;96.80;;;;;;5305587;26;21153;-65
2024/04/11 07:21:34;;;;;;;2.00;1.67;;;11.70;97.30;;;;;;5305354;26;20568;-65
2024/04/11 07:24:00;;;;;;;1.50;1.40;;;11.90;96.40;;;;;;5307391;26;20471;-65
2024/04/11 07:26:30;;;;;;;2.00;1.77;;;12.00;95.20;;;;;;5333568;26;20478;-65
2024/04/11 07:28:59;;;;;;;1.10;1.00;;;12.20;95.60;;;;;;5307236;26;21025;-65
2024/04/11 07:31:25;;;;;;;1.27;1.17;;;12.40;96.40;;;;;;5306663;26;21123;-65
2024/04/11 07:33:51;;;;;;;1.10;1.00;;;12.50;93.70;;;;;;5306762;26;20475;-65
2024/04/11 07:36:17;;;;;;;1.00;0.90;;;12.60;92.90;;;;;;5306515;26;20894;-66
2024/04/11 07:38:43;;;;;;;0.90;0.80;;;12.70;93.20;;;;;;5309135;26;20341;-66
2024/04/11 07:41:18;;;;;;;2.57;2.37;;;12.80;92.20;;;;;;5299344;26;21024;-66
2024/04/11 07:43:45;;;;;;;2.03;1.63;;;12.90;91.40;;;;;;5295198;27;21128;-65
2024/04/11 07:46:13;;;;;;;1.23;1.13;;;12.90;91.20;;;;;;5306256;26;20855;-65
2024/04/11 07:48:47;;;;;;;2.17;1.07;;;13.10;91.70;;;;;;5306987;26;20523;-67
2024/04/11 07:51:16;;;;;;;1.87;1.30;;;13.30;91.60;;;;;;5298771;26;20531;-64
2024/04/11 07:53:46;;;;;;;1.93;1.27;;;13.40;89.00;;;;;;5304663;27;20570;-66
2024/04/11 07:56:15;;;;;;;1.07;1.00;;;13.50;89.00;;;;;;5306390;26;20508;-66
2024/04/11 07:58:40;;;;;;;0.93;0.83;;;13.70;88.00;;;;;;5305995;26;20888;-66
2024/04/11 08:01:08;;;;;;;1.10;1.00;;;13.70;87.90;;;;;;5306398;26;20471;-65
2024/04/11 08:03:34;;;;;;;1.97;1.30;;;13.90;87.80;;;;;;5306551;26;20232;-66
2024/04/11 08:06:00;;;;;;;1.40;1.30;;;14.10;87.50;;;;;;5333218;26;20523;-66
2024/04/11 08:08:26;;;;;;;11.90;1.10;;;14.20;86.00;;;;;;5304806;27;20474;-66
2024/04/11 08:11:02;;;;;;;7.87;2.43;;;14.30;86.30;;;;;;5304810;26;20240;-66
2024/04/11 08:13:29;;;;;;;1.10;1.00;;;14.40;85.20;;;;;;5306863;26;20270;-64
2024/04/11 08:15:54;;;;;;;1.73;1.63;;;14.40;83.50;;;;;;5305028;26;20526;-64
2024/04/11 08:18:21;;;;;;;10.10;2.80;;;14.50;83.90;;;;;;5300380;27;20552;-63
2024/04/11 08:20:46;;;;;;;7.50;2.53;;;14.60;83.70;;;;;;5295209;27;20244;-64
2024/04/11 08:23:12;;;;;;;2.53;1.93;;;14.70;83.80;;;;;;5297097;27;21083;-63
2024/04/11 08:25:37;;;;;;;1.67;1.63;;;14.70;82.10;;;;;;5301948;27;20268;-64
2024/04/11 08:28:03;;;;;;;1.27;1.17;;;14.80;82.10;;;;;;5297132;26;20297;-64
2024/04/11 08:30:29;;;;;;;1.73;1.13;;;15.00;82.60;;;;;;5303276;26;20337;-65
2024/04/11 08:32:55;;;;;;;1.30;1.00;;;15.00;82.30;;;;;;5306106;26;20232;-64
2024/04/11 08:35:21;;;;;;;1.30;1.20;;;15.20;84.80;;;;;;5306083;26;20731;-64
2024/04/11 08:37:51;;;;;;;3.17;3.00;;;15.50;83.30;;;;;;5307123;26;20522;-65
2024/04/11 08:40:17;;;;;;;1.00;0.90;;;15.60;82.10;;;;;;5305789;26;20308;-64
2024/04/11 08:42:43;;;;;;;1.43;1.33;;;15.60;82.50;;;;;;5306482;26;20455;-64
2024/04/11 08:45:09;;;;;;;3.13;1.50;;;15.80;81.70;;;;;;5303571;27;21087;-64
2024/04/11 08:47:35;;;;;;;1.10;1.00;;;15.90;80.30;;;;;;5305526;27;20377;-64
2024/04/11 08:50:05;;;;;;;3.93;1.10;;;15.90;79.50;;;;;;5303935;27;20240;-65
2024/04/11 08:52:34;;;;;;;3.90;1.90;;;16.00;79.40;;;;;;5305877;26;20475;-65
2024/04/11 08:55:00;;;;;;;2.40;1.20;;;16.20;80.80;;;;;;5306157;26;20571;-64
2024/04/11 08:57:27;;;;;;;0.80;0.80;;;16.30;77.80;;;;;;5305472;26;20534;-65
2024/04/11 08:59:54;;;;;;;1.07;0.97;;;16.20;76.80;;;;;;5305755;26;20511;-64
2024/04/11 09:02:20;;;;;;;4.83;1.07;;;16.20;75.30;;;;;;5303300;26;20557;-64
2024/04/11 09:04:46;;;;;;;1.20;1.10;;;16.00;75.00;;;;;;5303916;27;20527;-66
2024/04/11 09:07:21;;;;;;;2.37;1.40;;;16.10;75.40;;;;;;5305479;26;20321;-64
2024/04/11 09:09:48;;;;;;;1.10;1.00;;;16.20;73.50;;;;;;5291304;27;20263;-66
2024/04/11 09:12:16;;;;;;;1.50;1.30;;;16.00;72.50;;;;;;5303971;26;20467;-65
2024/04/11 09:14:43;;;;;;;0.90;0.80;;;16.00;73.50;;;;;;5318284;26;20459;-64
2024/04/11 09:17:09;;;;;;;1.13;1.03;;;16.10;74.00;;;;;;5303576;27;20582;-65
2024/04/11 09:19:40;;;;;;;1.10;1.00;;;16.20;74.00;;;;;;5303155;27;20479;-67
2024/04/11 09:22:12;;;;;;;1.10;0.90;;;16.40;74.30;;;;;;5303233;26;20240;-65
2024/04/11 09:24:44;;;;;;;0.70;0.70;;;16.60;73.40;;;;;;5305360;26;20459;-68
2024/04/11 09:27:12;;;;;;;10.30;1.20;;;16.70;71.90;;;;;;5304951;26;21177;-67
2024/04/11 09:29:37;;;;;;;0.93;0.83;;;16.60;71.20;;;;;;5304853;26;20572;-66
2024/04/11 09:32:04;;;;;;;1.13;1.03;;;16.50;71.10;;;;;;5303183;26;20479;-65
2024/04/11 09:34:30;;;;;;;1.43;0.90;;;16.50;71.40;;;;;;5304828;26;20451;-66
2024/04/11 09:36:59;;;;;;;1.30;1.20;;;16.60;71.60;;;;;;5305416;26;20533;-65
2024/04/11 09:39:49;;;;;;;0.90;0.80;;;16.60;70.90;;;;;;5303373;26;20515;-67
2024/04/11 09:42:18;;;;;;;2.40;1.20;;;16.60;71.50;;;;;;5302532;26;20463;-66
2024/04/11 09:44:50;;;;;;;1.10;1.03;;;16.70;70.80;;;;;;5302820;27;20459;-64
2024/04/11 09:47:19;;;;;;;1.40;1.03;;;16.70;71.40;;;;;;5304316;26;20455;-64
2024/04/11 09:49:53;;;;;;;0.80;0.77;;;16.60;70.20;;;;;;5289225;27;20814;-65
2024/04/11 09:52:27;;;;;;;0.70;0.70;;;16.70;71.00;;;;;;5302943;26;21058;-64
2024/04/11 09:54:55;;;;;;;1.00;0.90;;;16.80;70.80;;;;;;5293317;27;21006;-63
2024/04/11 09:57:24;;;;;;;1.53;1.43;;;16.90;70.70;;;;;;5304416;26;20535;-65
2024/04/11 09:59:50;;;;;;;1.20;1.10;;;17.00;70.70;;;;;;5297778;27;20460;-64
2024/04/11 10:02:20;;;;;;;2.10;1.63;;;17.40;72.50;;;;;;5297744;27;20587;-64
2024/04/11 10:04:47;;;;;;;0.83;0.77;;;17.80;71.90;;;;;;5291691;27;20523;-66
2024/04/11 10:07:19;;;;;;;0.97;0.90;;;18.10;72.20;;;;;;5305417;26;20451;-63
2024/04/11 10:09:49;;;;;;;5.53;1.13;;;17.80;69.80;;;;;;5305301;26;20516;-65
2024/04/11 10:12:19;;;;;;;1.00;0.97;;;17.80;69.70;;;;;;5303395;26;20470;-69
2024/04/11 10:14:56;;;;;;;0.90;0.83;;;17.80;71.30;;;;;;5319099;21;20498;-63
2024/04/11 10:17:28;;;;;;;1.40;1.00;;;17.80;70.30;;;;;;5319002;26;20465;-61
2024/04/11 10:19:59;;;;;;;1.27;1.17;;;18.10;71.30;;;;;;5305029;26;20559;-64
2024/04/11 10:22:25;;;;;;;2.43;1.97;;;18.30;71.70;;;;;;5320640;26;20470;-61
2024/04/11 10:25:07;;;;;;;2.73;1.63;;;18.10;69.70;;;;;;5328033;26;20834;-65
2024/04/11 10:27:36;;;;;;;1.10;1.00;;;18.20;70.90;;;;;;5328296;26;20470;-61
2024/04/11 10:30:07;;;;;;;2.13;1.30;;;18.30;72.50;;;;;;5333036;26;20507;-61
2024/04/11 10:32:36;;;;;;;0.90;0.80;;;18.50;70.50;;;;;;5336451;26;20469;-62
2024/04/11 10:35:04;;;;;;;1.40;1.00;;;18.40;70.10;;;;;;5316967;26;20466;-64
2024/04/11 10:37:33;;;;;;;1.03;1.03;;;18.60;71.80;;;;;;5336450;26;20471;-64
2024/04/11 10:40:00;;;;;;;1.60;1.07;;;18.50;70.40;;;;;;5342004;26;20525;-64
2024/04/11 10:42:36;;;;;;;1.10;1.00;;;18.40;70.10;;;;;;5325434;26;20523;-65
2024/04/11 10:45:11;;;;;;;0.90;0.90;;;18.20;70.00;;;;;;5341616;26;20540;-62
2024/04/11 10:47:38;;;;;;;1.10;1.00;;;18.20;69.50;;;;;;5320178;26;20588;-62
2024/04/11 10:50:09;;;;;;;1.10;1.07;;;18.20;70.10;;;;;;5317016;26;20462;-63
2024/04/11 10:52:37;;;;;;;1.97;1.70;;;18.30;70.60;;;;;;5322749;26;20517;-63
2024/04/11 10:55:22;;;;;;;0.97;0.87;;;18.40;70.80;;;;;;5329104;26;20513;-62
2024/04/11 10:58:08;;;;;;;1.10;1.00;;;18.80;70.30;;;;;;5305282;26;20990;-62
2024/04/11 11:03:47;;;;;;;1.90;1.17;;;19.30;69.10;;;;;;5325155;26;20461;-66
2024/04/11 11:06:24;;;;;;;8.60;1.07;;;19.50;68.60;;;;;;5330247;26;20922;-62
2024/04/11 11:08:54;;;;;;;5.13;2.43;;;19.40;68.20;;;;;;5298799;26;21139;-62
2024/04/11 11:11:21;;;;;;;0.90;0.80;;;19.60;68.30;;;;;;5312156;26;20471;-65
2024/04/11 11:13:47;;;;;;;5.03;1.07;;;19.80;66.90;;;;;;5306819;26;21006;-62
2024/04/11 11:16:21;;;;;;;1.23;1.13;;;19.70;66.20;;;;;;5321261;26;20539;-64
2024/04/11 11:18:51;;;;;;;1.20;1.17;;;19.40;65.20;;;;;;5326225;26;20469;-62
2024/04/11 11:21:22;;;;;;;0.87;0.80;;;19.40;66.80;;;;;;5329314;26;20507;-63
2024/04/11 11:24:00;;;;;;;1.97;1.20;;;19.40;66.90;;;;;;5320889;26;20462;-64
2024/04/11 11:26:43;;;;;;;3.17;1.13;;;19.10;67.70;;;;;;5318970;26;21186;-63
2024/04/11 11:29:09;;;;;;;2.70;1.80;;;18.90;67.10;;;;;;5326912;26;20857;-63
2024/04/11 11:31:40;;;;;;;1.30;1.00;;;19.20;68.80;;;;;;5310627;26;20870;-62
2024/04/11 11:34:10;;;;;;;0.80;0.80;;;19.60;66.70;;;;;;5306045;26;20999;-63
2024/04/11 11:36:44;;;;;;;6.50;2.37;;;19.20;64.70;;;;;;5323256;26;20513;-62
2024/04/11 11:39:24;;;;;;;1.03;0.93;;;19.50;66.80;;;;;;5304076;26;20582;-63
2024/04/11 11:41:50;;;;;;;3.00;1.70;;;19.70;66.70;;;;;;5306705;26;20466;-63
2024/04/11 11:44:21;;;;;;;2.30;1.00;;;20.10;65.40;;;;;;5306051;26;20455;-62
2024/04/11 11:47:05;;;;;;;0.90;0.90;;;20.20;65.10;;;;;;5310946;26;20455;-63
2024/04/11 11:49:35;;;;;;;2.57;0.80;;;20.40;65.50;;;;;;5309458;26;20462;-63
2024/04/11 11:52:02;;;;;;;1.70;1.50;;;20.60;65.30;;;;;;5306462;26;20526;-62
2024/04/11 11:54:28;;;;;;;0.90;0.80;;;20.90;64.80;;;;;;5290053;26;20866;-63
2024/04/11 11:57:09;;;;;;;2.50;1.63;;;21.10;67.00;;;;;;5296662;26;20469;-64
2024/04/11 11:59:38;;;;;;;1.07;1.00;;;21.30;65.20;;;;;;5312078;26;20652;-61
2024/04/11 12:02:04;;;;;;;0.90;0.80;;;20.90;64.00;;;;;;5340712;26;20521;-62
2024/04/11 12:04:30;;;;;;;0.90;0.80;;;20.80;65.20;;;;;;5326528;26;20972;-63
2024/04/11 12:06:59;;;;;;;1.07;0.97;;;20.70;64.40;;;;;;5338208;26;20587;-63
2024/04/11 12:09:31;;;;;;;1.00;0.90;;;20.20;64.20;;;;;;5338997;26;20478;-62
2024/04/11 12:14:42;;;;;;;0.93;0.83;;;19.90;66.30;;;;;;5322806;26;20590;-63
2024/04/11 12:17:14;;;;;;;3.57;1.67;;;19.90;66.80;;;;;;5321197;26;20469;-65
2024/04/11 12:19:40;;;;;;;0.90;0.80;;;19.70;65.60;;;;;;5336251;26;20601;-63
2024/04/11 12:22:16;;;;;;;2.40;1.47;;;19.70;66.10;;;;;;5328518;26;20461;-64
2024/04/11 12:24:42;;;;;;;1.10;0.80;;;20.00;66.70;;;;;;5323598;26;20517;-63
2024/04/11 12:27:07;;;;;;;1.03;0.93;;;20.40;65.80;;;;;;5314958;26;20478;-64
2024/04/11 12:29:33;;;;;;;2.23;1.20;;;20.50;66.50;;;;;;5324397;26;20525;-62
2024/04/11 12:32:03;;;;;;;1.00;0.90;;;20.30;66.40;;;;;;5338466;26;20243;-61
2024/04/11 12:34:32;;;;;;;8.63;2.13;;;20.60;67.20;;;;;;5310665;26;20232;-63
2024/04/11 12:36:58;;;;;;;1.00;0.90;;;20.50;66.60;;;;;;5324608;26;20829;-65
2024/04/11 12:39:32;;;;;;;1.13;0.90;;;20.30;66.80;;;;;;5313339;26;20454;-63
2024/04/11 12:42:00;;;;;;;2.77;1.30;;;20.20;67.50;;;;;;5324556;26;21056;-63
2024/04/11 12:44:30;;;;;;;1.23;1.03;;;20.00;68.00;;;;;;5340733;26;20589;-63
2024/04/11 12:46:57;;;;;;;3.20;1.50;;;19.80;67.00;;;;;;5338445;26;20560;-63
2024/04/11 12:49:26;;;;;;;17.47;1.40;;;19.70;66.60;;;;;;5340797;26;21232;-63
2024/04/11 12:52:00;;;;;;;1.10;1.00;;;19.40;66.30;;;;;;5308481;26;20612;-62
2024/04/11 12:54:26;;;;;;;1.27;1.17;;;19.50;67.20;;;;;;5306393;26;20479;-61
2024/04/11 12:56:56;;;;;;;1.27;1.17;;;19.40;66.40;;;;;;5322868;26;20582;-64
2024/04/11 12:59:30;;;;;;;2.83;2.00;;;19.40;66.20;;;;;;5338614;26;20294;-61
2024/04/11 13:01:56;;;;;;;2.47;1.57;;;19.40;67.20;;;;;;5323555;26;20594;-62
2024/04/11 13:04:32;;;;;;;2.70;1.03;;;19.50;66.30;;;;;;5306792;26;20515;-63
2024/04/11 13:07:01;;;;;;;0.90;0.80;;;19.60;66.60;;;;;;5339185;26;20872;-63
2024/04/11 13:09:33;;;;;;;0.93;0.83;;;19.80;66.30;;;;;;5340182;26;20465;-64
2024/04/11 13:12:00;;;;;;;0.90;0.80;;;19.90;67.10;;;;;;5326444;26;21169;-65
2024/04/11 13:14:28;;;;;;;0.87;0.80;;;19.90;66.10;;;;;;5304770;26;20854;-64
2024/04/11 13:17:02;;;;;;;0.93;0.83;;;19.80;66.90;;;;;;5302185;26;21115;-64
2024/04/11 13:19:34;;;;;;;1.70;1.60;;;20.00;66.00;;;;;;5319498;26;20522;-62
2024/04/11 13:22:03;;;;;;;0.90;0.80;;;20.20;65.70;;;;;;5323736;26;20470;-63
2024/04/11 13:24:42;;;;;;;1.10;1.00;;;20.40;64.80;;;;;;5325393;26;20470;-63
2024/04/11 13:27:13;;;;;;;1.20;1.10;;;20.50;63.60;;;;;;5303132;26;20865;-65
2024/04/11 13:29:39;;;;;;;11.30;1.33;;;20.70;64.00;;;;;;5304418;26;20514;-64
2024/04/11 13:32:11;;;;;;;2.97;1.60;;;20.70;64.70;;;;;;5295181;26;21064;-63
2024/04/11 13:34:40;;;;;;;0.90;0.80;;;20.80;63.20;;;;;;5328403;26;20517;-63
2024/04/11 13:37:07;;;;;;;1.43;1.37;;;20.90;64.60;;;;;;5308660;26;21036;-64
2024/04/11 13:39:56;;;;;;;0.80;0.70;;;20.80;63.30;;;;;;5313359;26;21050;-65
2024/04/11 13:42:22;;;;;;;1.93;1.67;;;20.70;63.90;;;;;;5295781;26;20531;-64
2024/04/11 13:44:48;;;;;;;1.53;1.37;;;20.80;64.20;;;;;;5322777;26;20461;-65
2024/04/11 13:47:15;;;;;;;0.90;0.80;;;20.90;63.40;;;;;;5340070;26;21037;-65
2024/04/11 13:49:57;;;;;;;8.87;1.43;;;21.30;64.20;;;;;;5309680;26;20239;-65
2024/04/11 13:52:31;;;;;;;3.47;2.07;;;21.20;62.90;;;;;;5303492;26;20530;-65
2024/04/11 13:54:59;;;;;;;1.10;1.00;;;21.10;63.40;;;;;;5317571;26;20443;-62
2024/04/11 13:57:32;;;;;;;4.23;1.80;;;21.70;63.50;;;;;;5314308;26;20537;-63
2024/04/11 13:59:58;;;;;;;0.80;0.80;;;21.80;63.20;;;;;;5318717;26;20810;-63
2024/04/11 14:02:38;;;;;;;1.03;0.93;;;21.80;62.60;;;;;;5305457;26;20527;-65
2024/04/11 14:05:10;;;;;;;2.40;1.53;;;21.80;63.20;;;;;;5304538;26;20459;-65
2024/04/11 14:07:37;;;;;;;0.90;0.80;;;22.00;63.90;;;;;;5318942;26;21239;-65
2024/04/11 14:10:04;;;;;;;1.00;1.00;;;22.20;63.50;;;;;;5319310;26;20582;-63
2024/04/11 14:12:30;;;;;;;0.73;0.70;;;22.40;62.80;;;;;;5317389;26;20459;-63
2024/04/11 14:14:56;;;;;;;0.80;0.80;;;22.40;61.70;;;;;;5310063;26;20529;-63
2024/04/11 14:17:28;;;;;;;1.13;1.10;;;22.10;63.10;;;;;;5328354;26;20463;-63
2024/04/11 14:20:19;;;;;;;0.80;0.80;;;22.40;62.90;;;;;;5319141;26;21176;-62
2024/04/11 14:22:47;;;;;;;2.10;1.00;;;22.60;62.50;;;;;;5333017;26;21150;-63
2024/04/11 14:27:43;;;;;;;1.67;0.97;;;22.50;62.00;;;;;;5318487;26;20859;-65
2024/04/11 14:30:09;;;;;;;1.47;1.37;;;21.70;61.40;;;;;;5302849;26;20478;-65
2024/04/11 14:38:07;;;;;;;1.97;1.17;;;20.90;64.60;;;;;;5319106;26;20479;-65
2024/04/11 14:40:37;;;;;;;1.07;0.90;;;20.70;64.80;;;;;;5303044;26;20515;-65
2024/04/11 14:43:10;;;;;;;1.33;1.10;;;20.40;65.50;;;;;;5295063;26;21009;-64
2024/04/11 14:45:39;;;;;;;1.83;1.73;;;20.20;66.00;;;;;;5322514;26;20576;-65
2024/04/11 14:48:21;;;;;;;1.10;1.00;;;20.00;66.30;;;;;;5309685;26;20473;-64
2024/04/11 14:50:58;;;;;;;1.50;1.30;;;19.80;66.30;;;;;;5319265;26;20469;-65
2024/04/11 14:53:24;;;;;;;1.03;0.93;;;19.70;66.40;;;;;;5303723;26;21010;-64
2024/04/11 14:55:51;;;;;;;1.20;1.10;;;19.60;67.20;;;;;;5301839;26;20470;-64
2024/04/11 14:58:19;;;;;;;1.90;1.43;;;19.50;66.80;;;;;;5317712;26;20509;-66
2024/04/11 15:00:48;;;;;;;1.80;1.70;;;19.40;67.90;;;;;;5303784;26;20470;-64
2024/04/11 15:03:18;;;;;;;1.50;1.40;;;19.40;67.80;;;;;;5317579;26;20459;-65
2024/04/11 15:05:50;;;;;;;3.60;2.40;;;19.40;68.20;;;;;;5305033;26;20466;-65
2024/04/11 15:08:22;;;;;;;1.37;1.27;;;19.30;68.10;;;;;;5327139;26;20471;-65
2024/04/11 15:10:51;;;;;;;0.90;0.80;;;19.30;67.30;;;;;;5304427;26;20478;-65
2024/04/11 15:13:18;;;;;;;2.20;1.23;;;19.20;67.60;;;;;;5313585;26;20563;-65
2024/04/11 15:15:56;;;;;;;1.20;1.10;;;19.20;68.00;;;;;;5316174;26;20473;-65
2024/04/11 15:18:27;;;;;;;1.07;0.97;;;19.10;67.90;;;;;;5317489;26;20461;-65
2024/04/11 15:21:15;;;;;;;2.20;2.03;;;18.90;68.20;;;;;;5326929;26;20471;-64
2024/04/11 15:23:42;;;;;;;5.37;1.63;;;18.90;68.60;;;;;;5340429;26;20457;-64
2024/04/11 15:26:14;;;;;;;0.93;0.83;;;19.00;68.60;;;;;;5307006;26;20513;-65
2024/04/11 15:28:52;;;;;;;1.10;0.90;;;19.00;68.40;;;;;;5320204;26;20911;-64
2024/04/11 15:31:30;;;;;;;0.90;0.80;;;19.00;69.20;;;;;;5327277;26;20465;-64
2024/04/11 15:33:56;;;;;;;1.20;1.10;;;19.00;70.00;;;;;;5339092;26;20461;-65
2024/04/11 15:36:31;;;;;;;1.20;1.10;;;19.10;70.10;;;;;;5339540;26;20469;-64
2024/04/11 15:39:00;;;;;;;1.27;1.17;;;19.00;69.80;;;;;;5316764;26;20519;-63
2024/04/11 15:41:29;;;;;;;5.50;1.73;;;19.00;69.40;;;;;;5320879;26;20612;-63
2024/04/11 15:43:55;;;;;;;2.10;1.10;;;18.90;69.80;;;;;;5302916;26;20527;-64
2024/04/11 15:46:21;;;;;;;1.13;1.03;;;18.80;69.80;;;;;;5313530;26;20520;-64
2024/04/11 15:48:56;;;;;;;1.10;1.00;;;18.70;70.60;;;;;;5308836;26;20468;-64
2024/04/11 15:51:24;;;;;;;1.07;1.00;;;18.70;70.40;;;;;;5314977;26;20235;-64
2024/04/11 15:53:56;;;;;;;1.40;1.30;;;18.60;70.10;;;;;;5308185;26;20601;-64
2024/04/11 15:56:37;;;;;;;2.30;1.50;;;18.60;70.10;;;;;;5314762;26;21009;-64
2024/04/11 15:59:09;;;;;;;4.63;1.83;;;18.50;70.40;;;;;;5304057;26;20534;-64
2024/04/11 16:01:39;;;;;;;3.23;1.53;;;18.50;70.70;;;;;;5319005;26;20915;-65
2024/04/11 16:04:08;;;;;;;1.43;1.33;;;18.50;71.60;;;;;;5306174;26;21026;-64
2024/04/11 16:06:37;;;;;;;2.30;1.27;;;18.50;71.00;;;;;;5312919;26;21279;-64
2024/04/11 16:09:11;;;;;;;1.50;1.40;;;18.50;71.00;;;;;;5340184;26;20506;-64
2024/04/11 16:11:41;;;;;;;1.03;0.93;;;18.50;71.10;;;;;;5312794;26;20522;-63
2024/04/11 16:14:07;;;;;;;1.33;1.23;;;18.30;71.80;;;;;;5285192;26;20511;-64
2024/04/11 16:16:39;;;;;;;1.20;1.10;;;18.20;73.10;;;;;;5324622;26;20537;-64
2024/04/11 16:19:05;;;;;;;1.10;1.00;;;18.10;73.30;;;;;;5298583;26;20336;-64
2024/04/11 16:21:31;;;;;;;1.00;0.90;;;18.00;73.80;;;;;;5325882;26;20899;-63
2024/04/11 16:23:57;;;;;;;0.97;0.97;;;17.90;74.30;;;;;;5322903;26;20597;-63
2024/04/11 16:26:27;;;;;;;0.90;0.80;;;17.90;74.10;;;;;;5340680;26;20243;-64
2024/04/11 16:28:57;;;;;;;1.83;1.00;;;17.80;75.40;;;;;;5308579;26;20559;-64
2024/04/11 16:31:26;;;;;;;1.23;1.13;;;17.80;76.30;;;;;;5318737;26;20486;-64
2024/04/11 16:33:58;;;;;;;1.00;0.90;;;17.70;76.30;;;;;;5304104;26;21119;-64
2024/04/11 16:36:28;;;;;;;1.10;1.00;;;17.60;76.80;;;;;;5320486;26;20520;-64
2024/04/11 16:38:54;;;;;;;1.07;0.80;;;17.60;75.60;;;;;;5304999;26;20549;-63
2024/04/11 16:41:20;;;;;;;1.30;1.20;;;17.60;75.90;;;;;;5316456;26;21109;-63
2024/04/11 16:43:52;;;;;;;1.57;1.10;;;17.60;74.70;;;;;;5333904;26;20470;-64
2024/04/11 16:46:26;;;;;;;4.03;1.30;;;17.70;74.30;;;;;;5329147;26;20506;-63
2024/04/11 16:48:53;;;;;;;1.00;0.90;;;17.70;74.40;;;;;;5306787;26;20522;-64
2024/04/11 16:51:25;;;;;;;2.07;1.50;;;17.70;74.70;;;;;;5305736;26;21078;-64
2024/04/11 16:54:18;;;;;;;1.67;1.00;;;17.70;74.30;;;;;;5320050;26;20509;-64
2024/04/11 16:56:38;;;;;;;1.43;1.27;;;17.80;74.40;;;;;;5305955;26;20467;-64
2024/04/11 16:59:06;;;;;;;1.40;1.27;;;17.70;74.50;;;;;;5312127;26;20525;-64
2024/04/11 17:01:33;;;;;;;1.30;1.07;;;17.70;74.10;;;;;;5314918;26;20474;-64
2024/04/11 17:04:04;;;;;;;2.90;1.83;;;17.70;73.80;;;;;;5292273;26;20474;-65
2024/04/11 17:06:33;;;;;;;0.97;0.80;;;17.60;74.00;;;;;;5304230;26;20577;-64
2024/04/11 17:09:03;;;;;;;0.90;0.80;;;17.60;73.90;;;;;;5303759;26;20526;-65
2024/04/11 17:11:35;;;;;;;3.43;1.27;;;17.60;73.20;;;;;;5305779;26;20525;-64
2024/04/11 17:14:01;;;;;;;1.83;1.13;;;17.60;73.70;;;;;;5304281;26;20525;-64
2024/04/11 17:19:29;;;;;;;3.33;2.10;;;17.60;73.50;;;;;;5306043;26;20527;-64
2024/04/11 17:21:56;;;;;;;0.93;0.87;;;17.50;73.80;;;;;;5306219;26;20513;-64
2024/04/11 17:24:22;;;;;;;1.00;0.80;;;17.50;74.50;;;;;;5304154;26;20515;-64
2024/04/11 17:26:52;;;;;;;0.90;0.80;;;17.40;74.20;;;;;;5305241;26;20487;-65
2024/04/11 17:29:46;;;;;;;0.90;0.80;;;17.30;74.00;;;;;;5305509;26;20462;-65
2024/04/11 17:32:12;;;;;;;0.97;0.90;;;17.30;74.70;;;;;;5301037;26;20467;-65
2024/04/11 17:34:47;;;;;;;0.90;0.80;;;17.20;74.70;;;;;;5298855;26;20463;-64